Terminal Aerodrome Forecast
Issued by NWS Spokane, WA

Home | Current Version | Previous Version | Text Only | Print | Product List | Glossary On
Versions: 1 2 3 4 5 6 7 8 9 10 11 12 13
950
FTUS46 KOTX 221127
TAFGEG
TAF
KGEG 221127Z 2212/2312 14004KT P6SM SCT120 BKN200
     FM221900 02007KT P6SM SCT070 SCT120
     FM230200 VRB04KT P6SM FEW070 BKN120
     FM230900 10005KT P6SM SKC=

USA.gov is the U.S. government's official web portal to all federal, state and local government web resources and services.